sensor_id;sensor_type;location;lat;lon;timestamp;pressure;altitude;pressure_sealevel;temperature;humidity
77011;BME280;65945;53.148;17.956;2023-03-01T00:00:00;102579.61;;;-3.61;75.41
77011;BME280;65945;53.148;17.956;2023-03-01T00:02:27;102580.58;;;-3.61;75.50
77011;BME280;65945;53.148;17.956;2023-03-01T00:04:53;102583.71;;;-3.59;75.50
77011;BME280;65945;53.148;17.956;2023-03-01T00:07:20;102584.80;;;-3.58;75.46
77011;BME280;65945;53.148;17.956;2023-03-01T00:09:47;102586.45;;;-3.58;75.39
77011;BME280;65945;53.148;17.956;2023-03-01T00:12:13;102588.38;;;-3.58;75.44
77011;BME280;65945;53.148;17.956;2023-03-01T00:14:40;102585.16;;;-3.58;75.19
77011;BME280;65945;53.148;17.956;2023-03-01T00:17:06;102584.44;;;-3.59;75.01
77011;BME280;65945;53.148;17.956;2023-03-01T00:19:33;102584.77;;;-3.61;74.95
77011;BME280;65945;53.148;17.956;2023-03-01T00:22:00;102580.11;;;-3.62;74.86
77011;BME280;65945;53.148;17.956;2023-03-01T00:24:27;102578.95;;;-3.64;74.86
77011;BME280;65945;53.148;17.956;2023-03-01T00:26:54;102571.70;;;-3.65;74.85
77011;BME280;65945;53.148;17.956;2023-03-01T00:29:24;102564.44;;;-3.66;74.86
77011;BME280;65945;53.148;17.956;2023-03-01T00:31:51;102564.98;;;-3.68;74.83
77011;BME280;65945;53.148;17.956;2023-03-01T00:34:18;102562.36;;;-3.69;74.91
77011;BME280;65945;53.148;17.956;2023-03-01T00:36:44;102563.30;;;-3.70;74.77
77011;BME280;65945;53.148;17.956;2023-03-01T00:39:14;102564.79;;;-3.72;74.99
77011;BME280;65945;53.148;17.956;2023-03-01T00:41:41;102563.55;;;-3.74;74.98
77011;BME280;65945;53.148;17.956;2023-03-01T00:44:09;102560.62;;;-3.75;75.18
77011;BME280;65945;53.148;17.956;2023-03-01T00:46:36;102557.38;;;-3.78;75.18
77011;BME280;65945;53.148;17.956;2023-03-01T00:49:03;102552.08;;;-3.80;75.35
77011;BME280;65945;53.148;17.956;2023-03-01T00:51:31;102549.52;;;-3.81;75.29
77011;BME280;65945;53.148;17.956;2023-03-01T00:54:00;102549.34;;;-3.80;75.24
77011;BME280;65945;53.148;17.956;2023-03-01T00:56:27;102543.95;;;-3.81;75.27
77011;BME280;65945;53.148;17.956;2023-03-01T00:58:54;102539.86;;;-3.81;75.18
77011;BME280;65945;53.148;17.956;2023-03-01T01:01:27;102542.48;;;-3.83;75.12
77011;BME280;65945;53.148;17.956;2023-03-01T01:04:00;102541.92;;;-3.85;75.18
77011;BME280;65945;53.148;17.956;2023-03-01T01:06:30;102535.78;;;-3.86;75.05
77011;BME280;65945;53.148;17.956;2023-03-01T01:08:58;102533.93;;;-3.87;75.06
77011;BME280;65945;53.148;17.956;2023-03-01T01:11:27;102537.44;;;-3.89;75.14
77011;BME280;65945;53.148;17.956;2023-03-01T01:13:57;102531.30;;;-3.91;75.22
77011;BME280;65945;53.148;17.956;2023-03-01T01:16:26;102526.23;;;-3.92;75.17
77011;BME280;65945;53.148;17.956;2023-03-01T01:18:53;102521.38;;;-3.94;75.29
77011;BME280;65945;53.148;17.956;2023-03-01T01:21:22;102520.59;;;-3.94;75.11
77011;BME280;65945;53.148;17.956;2023-03-01T01:23:49;102511.21;;;-3.96;75.22
77011;BME280;65945;53.148;17.956;2023-03-01T01:26:25;102513.83;;;-3.96;75.32
77011;BME280;65945;53.148;17.956;2023-03-01T01:28:53;102508.63;;;-3.96;75.41
77011;BME280;65945;53.148;17.956;2023-03-01T01:31:21;102506.42;;;-3.95;75.41
77011;BME280;65945;53.148;17.956;2023-03-01T01:33:50;102501.52;;;-3.94;75.33
77011;BME280;65945;53.148;17.956;2023-03-01T01:36:17;102503.63;;;-3.93;75.34
77011;BME280;65945;53.148;17.956;2023-03-01T01:38:44;102499.61;;;-3.93;75.23
77011;BME280;65945;53.148;17.956;2023-03-01T01:41:12;102493.34;;;-3.93;75.51
77011;BME280;65945;53.148;17.956;2023-03-01T01:43:42;102495.27;;;-3.93;75.26
77011;BME280;65945;53.148;17.956;2023-03-01T01:46:29;102489.04;;;-3.93;75.43
77011;BME280;65945;53.148;17.956;2023-03-01T01:49:02;102478.54;;;-3.93;75.22
77011;BME280;65945;53.148;17.956;2023-03-01T01:51:34;102480.02;;;-3.94;75.10
77011;BME280;65945;53.148;17.956;2023-03-01T01:54:10;102480.45;;;-3.94;75.11
77011;BME280;65945;53.148;17.956;2023-03-01T01:56:40;102477.48;;;-3.95;75.10
77011;BME280;65945;53.148;17.956;2023-03-01T01:59:09;102475.94;;;-3.94;75.09
77011;BME280;65945;53.148;17.956;2023-03-01T02:01:36;102476.58;;;-3.94;75.10
77011;BME280;65945;53.148;17.956;2023-03-01T02:04:03;102474.61;;;-3.93;74.96
77011;BME280;65945;53.148;17.956;2023-03-01T02:06:48;102464.87;;;-3.92;74.92
77011;BME280;65945;53.148;17.956;2023-03-01T02:09:20;102469.69;;;-3.93;74.78
77011;BME280;65945;53.148;17.956;2023-03-01T02:11:49;102472.23;;;-3.92;74.99
77011;BME280;65945;53.148;17.956;2023-03-01T02:14:17;102473.04;;;-3.92;75.07
77011;BME280;65945;53.148;17.956;2023-03-01T02:16:44;102477.73;;;-3.92;74.88
77011;BME280;65945;53.148;17.956;2023-03-01T02:19:22;102479.95;;;-3.93;74.80
77011;BME280;65945;53.148;17.956;2023-03-01T02:22:14;102483.13;;;-3.93;74.80
77011;BME280;65945;53.148;17.956;2023-03-01T02:27:23;102481.59;;;-3.91;74.67
77011;BME280;65945;53.148;17.956;2023-03-01T02:29:52;102476.17;;;-3.90;75.00
77011;BME280;65945;53.148;17.956;2023-03-01T02:32:19;102476.89;;;-3.91;75.20
77011;BME280;65945;53.148;17.956;2023-03-01T02:34:55;102471.90;;;-3.93;75.19
77011;BME280;65945;53.148;17.956;2023-03-01T02:37:24;102466.73;;;-3.93;75.15
77011;BME280;65945;53.148;17.956;2023-03-01T02:39:59;102465.20;;;-3.93;74.98
77011;BME280;65945;53.148;17.956;2023-03-01T02:42:36;102460.77;;;-3.93;75.00
77011;BME280;65945;53.148;17.956;2023-03-01T02:45:07;102458.73;;;-3.93;74.89
77011;BME280;65945;53.148;17.956;2023-03-01T02:47:33;102457.95;;;-3.92;74.93
77011;BME280;65945;53.148;17.956;2023-03-01T02:50:00;102452.04;;;-3.93;75.08
77011;BME280;65945;53.148;17.956;2023-03-01T02:52:48;102451.38;;;-3.94;74.91
77011;BME280;65945;53.148;17.956;2023-03-01T02:55:19;102447.47;;;-3.93;75.23
77011;BME280;65945;53.148;17.956;2023-03-01T02:57:47;102444.45;;;-3.93;75.15
77011;BME280;65945;53.148;17.956;2023-03-01T03:00:32;102449.05;;;-3.92;75.17
77011;BME280;65945;53.148;17.956;2023-03-01T03:03:01;102448.91;;;-3.94;75.10
77011;BME280;65945;53.148;17.956;2023-03-01T03:05:31;102445.67;;;-3.96;75.35
77011;BME280;65945;53.148;17.956;2023-03-01T03:07:59;102446.52;;;-3.97;75.32
77011;BME280;65945;53.148;17.956;2023-03-01T03:10:29;102444.59;;;-3.97;75.37
77011;BME280;65945;53.148;17.956;2023-03-01T03:12:59;102445.80;;;-3.96;75.32
77011;BME280;65945;53.148;17.956;2023-03-01T03:15:27;102448.62;;;-3.98;75.58
77011;BME280;65945;53.148;17.956;2023-03-01T03:17:56;102445.63;;;-4.00;75.49
77011;BME280;65945;53.148;17.956;2023-03-01T03:20:26;102447.40;;;-4.02;75.51
77011;BME280;65945;53.148;17.956;2023-03-01T03:22:54;102442.14;;;-4.03;75.78
77011;BME280;65945;53.148;17.956;2023-03-01T03:25:22;102437.77;;;-4.04;75.58
77011;BME280;65945;53.148;17.956;2023-03-01T03:27:50;102432.89;;;-4.04;75.63
77011;BME280;65945;53.148;17.956;2023-03-01T03:30:30;102426.95;;;-4.05;75.77
77011;BME280;65945;53.148;17.956;2023-03-01T03:32:58;102423.21;;;-4.06;75.80
77011;BME280;65945;53.148;17.956;2023-03-01T03:35:30;102421.20;;;-4.06;75.80
77011;BME280;65945;53.148;17.956;2023-03-01T03:37:59;102414.66;;;-4.07;75.96
77011;BME280;65945;53.148;17.956;2023-03-01T03:40:41;102408.70;;;-4.07;75.99
77011;BME280;65945;53.148;17.956;2023-03-01T03:43:11;102405.89;;;-4.06;75.86
77011;BME280;65945;53.148;17.956;2023-03-01T03:45:38;102408.42;;;-4.06;75.85
77011;BME280;65945;53.148;17.956;2023-03-01T03:48:07;102404.00;;;-4.05;75.71
77011;BME280;65945;53.148;17.956;2023-03-01T03:50:36;102400.86;;;-4.05;75.89
77011;BME280;65945;53.148;17.956;2023-03-01T03:53:07;102398.73;;;-4.05;75.81
77011;BME280;65945;53.148;17.956;2023-03-01T03:55:34;102399.21;;;-4.05;75.79
77011;BME280;65945;53.148;17.956;2023-03-01T03:58:02;102404.75;;;-4.04;75.77
77011;BME280;65945;53.148;17.956;2023-03-01T04:00:41;102408.02;;;-4.04;75.91
77011;BME280;65945;53.148;17.956;2023-03-01T04:03:09;102404.70;;;-4.03;75.75
77011;BME280;65945;53.148;17.956;2023-03-01T04:05:38;102406.48;;;-4.02;75.82
77011;BME280;65945;53.148;17.956;2023-03-01T04:08:06;102409.70;;;-3.99;75.80
77011;BME280;65945;53.148;17.956;2023-03-01T04:10:41;102411.97;;;-3.95;75.80
77011;BME280;65945;53.148;17.956;2023-03-01T04:13:16;102417.18;;;-3.94;75.64
77011;BME280;65945;53.148;17.956;2023-03-01T04:15:48;102412.30;;;-3.91;75.80
77011;BME280;65945;53.148;17.956;2023-03-01T04:18:16;102412.92;;;-3.88;75.56
77011;BME280;65945;53.148;17.956;2023-03-01T04:20:43;102414.61;;;-3.85;75.31
77011;BME280;65945;53.148;17.956;2023-03-01T04:23:18;102414.70;;;-3.84;75.61
77011;BME280;65945;53.148;17.956;2023-03-01T04:25:51;102425.54;;;-3.80;75.59
77011;BME280;65945;53.148;17.956;2023-03-01T04:28:23;102422.15;;;-3.78;75.44
77011;BME280;65945;53.148;17.956;2023-03-01T04:30:54;102424.15;;;-3.76;75.46
77011;BME280;65945;53.148;17.956;2023-03-01T04:33:22;102420.48;;;-3.76;75.31
77011;BME280;65945;53.148;17.956;2023-03-01T04:35:49;102415.64;;;-3.74;75.27
77011;BME280;65945;53.148;17.956;2023-03-01T04:38:19;102408.12;;;-3.73;75.50
77011;BME280;65945;53.148;17.956;2023-03-01T04:40:46;102403.36;;;-3.72;75.41
77011;BME280;65945;53.148;17.956;2023-03-01T04:43:13;102397.26;;;-3.74;75.28
77011;BME280;65945;53.148;17.956;2023-03-01T04:45:41;102398.60;;;-3.74;75.46
77011;BME280;65945;53.148;17.956;2023-03-01T04:48:07;102399.22;;;-3.76;75.33
77011;BME280;65945;53.148;17.956;2023-03-01T04:50:34;102400.35;;;-3.78;75.42
77011;BME280;65945;53.148;17.956;2023-03-01T04:53:02;102401.45;;;-3.80;75.34
77011;BME280;65945;53.148;17.956;2023-03-01T04:55:28;102396.87;;;-3.81;75.50
77011;BME280;65945;53.148;17.956;2023-03-01T04:57:55;102395.63;;;-3.82;75.34
77011;BME280;65945;53.148;17.956;2023-03-01T05:00:23;102389.69;;;-3.83;75.45
77011;BME280;65945;53.148;17.956;2023-03-01T05:02:52;102382.19;;;-3.85;75.35
77011;BME280;65945;53.148;17.956;2023-03-01T05:05:34;102386.59;;;-3.87;75.45
77011;BME280;65945;53.148;17.956;2023-03-01T05:08:04;102393.67;;;-3.89;75.57
77011;BME280;65945;53.148;17.956;2023-03-01T05:10:34;102392.92;;;-3.91;75.59
77011;BME280;65945;53.148;17.956;2023-03-01T05:13:02;102400.70;;;-3.93;75.59
77011;BME280;65945;53.148;17.956;2023-03-01T05:15:31;102401.73;;;-3.97;75.70
77011;BME280;65945;53.148;17.956;2023-03-01T05:17:59;102402.98;;;-3.99;75.73
77011;BME280;65945;53.148;17.956;2023-03-01T05:20:28;102403.81;;;-4.01;75.90
77011;BME280;65945;53.148;17.956;2023-03-01T05:22:59;102405.06;;;-4.03;75.91
77011;BME280;65945;53.148;17.956;2023-03-01T05:25:26;102402.80;;;-4.05;76.00
77011;BME280;65945;53.148;17.956;2023-03-01T05:27:53;102400.95;;;-4.07;75.97
77011;BME280;65945;53.148;17.956;2023-03-01T05:30:20;102397.02;;;-4.09;76.08
77011;BME280;65945;53.148;17.956;2023-03-01T05:32:50;102392.89;;;-4.10;76.07
77011;BME280;65945;53.148;17.956;2023-03-01T05:35:21;102390.05;;;-4.13;76.02
77011;BME280;65945;53.148;17.956;2023-03-01T05:37:49;102388.45;;;-4.14;76.26
77011;BME280;65945;53.148;17.956;2023-03-01T05:40:18;102385.96;;;-4.16;76.40
77011;BME280;65945;53.148;17.956;2023-03-01T05:42:51;102387.66;;;-4.17;76.51
77011;BME280;65945;53.148;17.956;2023-03-01T05:45:18;102390.95;;;-4.17;76.39
77011;BME280;65945;53.148;17.956;2023-03-01T05:47:46;102389.06;;;-4.15;76.33
77011;BME280;65945;53.148;17.956;2023-03-01T05:50:19;102389.37;;;-4.14;76.34
77011;BME280;65945;53.148;17.956;2023-03-01T05:52:52;102390.73;;;-4.13;76.37
77011;BME280;65945;53.148;17.956;2023-03-01T05:55:20;102391.21;;;-4.11;76.49
77011;BME280;65945;53.148;17.956;2023-03-01T05:57:47;102390.08;;;-4.09;76.57
77011;BME280;65945;53.148;17.956;2023-03-01T06:00:17;102394.77;;;-4.07;76.51
77011;BME280;65945;53.148;17.956;2023-03-01T06:02:44;102395.27;;;-4.04;76.52
77011;BME280;65945;53.148;17.956;2023-03-01T06:05:14;102395.36;;;-4.01;76.66
77011;BME280;65945;53.148;17.956;2023-03-01T06:07:41;102396.67;;;-3.98;76.68
77011;BME280;65945;53.148;17.956;2023-03-01T06:10:08;102396.52;;;-3.94;76.52
77011;BME280;65945;53.148;17.956;2023-03-01T06:12:37;102396.05;;;-3.90;76.54
77011;BME280;65945;53.148;17.956;2023-03-01T06:15:06;102394.38;;;-3.85;76.72
77011;BME280;65945;53.148;17.956;2023-03-01T06:17:34;102399.96;;;-3.80;76.60
77011;BME280;65945;53.148;17.956;2023-03-01T06:20:15;102401.27;;;-3.74;76.25
77011;BME280;65945;53.148;17.956;2023-03-01T06:22:43;102405.01;;;-3.65;76.19
77011;BME280;65945;53.148;17.956;2023-03-01T06:25:11;102408.82;;;-3.55;76.30
77011;BME280;65945;53.148;17.956;2023-03-01T06:27:39;102409.86;;;-3.44;76.19
77011;BME280;65945;53.148;17.956;2023-03-01T06:30:08;102406.22;;;-3.33;76.09
77011;BME280;65945;53.148;17.956;2023-03-01T06:32:37;102408.96;;;-3.22;76.21
77011;BME280;65945;53.148;17.956;2023-03-01T06:35:04;102409.75;;;-3.12;75.98
77011;BME280;65945;53.148;17.956;2023-03-01T06:37:31;102408.11;;;-3.02;76.05
77011;BME280;65945;53.148;17.956;2023-03-01T06:39:58;102411.84;;;-2.92;75.72
77011;BME280;65945;53.148;17.956;2023-03-01T06:42:24;102412.09;;;-2.82;75.70
77011;BME280;65945;53.148;17.956;2023-03-01T06:44:51;102417.59;;;-2.73;75.57
77011;BME280;65945;53.148;17.956;2023-03-01T06:47:17;102419.20;;;-2.64;75.32
77011;BME280;65945;53.148;17.956;2023-03-01T06:49:44;102420.54;;;-2.56;75.34
77011;BME280;65945;53.148;17.956;2023-03-01T06:52:10;102422.67;;;-2.49;74.94
77011;BME280;65945;53.148;17.956;2023-03-01T06:54:37;102420.48;;;-2.43;74.79
77011;BME280;65945;53.148;17.956;2023-03-01T06:57:04;102419.63;;;-2.36;74.88
77011;BME280;65945;53.148;17.956;2023-03-01T06:59:30;102415.55;;;-2.29;74.81
77011;BME280;65945;53.148;17.956;2023-03-01T07:01:57;102407.95;;;-2.24;74.65
77011;BME280;65945;53.148;17.956;2023-03-01T07:04:24;102403.33;;;-2.16;74.64
77011;BME280;65945;53.148;17.956;2023-03-01T07:06:51;102404.80;;;-2.09;74.88
77011;BME280;65945;53.148;17.956;2023-03-01T07:09:22;102406.14;;;-2.02;74.63
77011;BME280;65945;53.148;17.956;2023-03-01T07:11:50;102396.57;;;-1.95;74.52
77011;BME280;65945;53.148;17.956;2023-03-01T07:14:17;102397.35;;;-1.89;74.47
77011;BME280;65945;53.148;17.956;2023-03-01T07:16:43;102398.02;;;-1.83;74.34
77011;BME280;65945;53.148;17.956;2023-03-01T07:19:10;102400.61;;;-1.76;74.29
77011;BME280;65945;53.148;17.956;2023-03-01T07:21:37;102396.89;;;-1.67;74.13
77011;BME280;65945;53.148;17.956;2023-03-01T07:24:07;102389.10;;;-1.57;73.88
77011;BME280;65945;53.148;17.956;2023-03-01T07:26:34;102381.61;;;-1.49;73.77
77011;BME280;65945;53.148;17.956;2023-03-01T07:29:03;102375.48;;;-1.42;73.75
77011;BME280;65945;53.148;17.956;2023-03-01T07:31:30;102374.70;;;-1.31;73.63
77011;BME280;65945;53.148;17.956;2023-03-01T07:33:57;102377.39;;;-1.21;73.58
77011;BME280;65945;53.148;17.956;2023-03-01T07:36:24;102379.61;;;-1.12;73.46
77011;BME280;65945;53.148;17.956;2023-03-01T07:38:51;102379.05;;;-1.01;73.46
77011;BME280;65945;53.148;17.956;2023-03-01T07:41:17;102379.97;;;-0.90;73.41
77011;BME280;65945;53.148;17.956;2023-03-01T07:43:44;102375.48;;;-0.80;73.28
77011;BME280;65945;53.148;17.956;2023-03-01T07:46:11;102371.27;;;-0.71;73.12
77011;BME280;65945;53.148;17.956;2023-03-01T07:48:37;102371.23;;;-0.62;73.10
77011;BME280;65945;53.148;17.956;2023-03-01T07:51:05;102366.61;;;-0.54;73.15
77011;BME280;65945;53.148;17.956;2023-03-01T07:53:32;102369.18;;;-0.43;72.63
77011;BME280;65945;53.148;17.956;2023-03-01T07:56:05;102373.73;;;-0.32;72.73
77011;BME280;65945;53.148;17.956;2023-03-01T07:58:37;102372.46;;;-0.21;72.77
77011;BME280;65945;53.148;17.956;2023-03-01T08:01:09;102369.62;;;-0.09;72.80
77011;BME280;65945;53.148;17.956;2023-03-01T08:03:36;102369.95;;;0.03;72.42
77011;BME280;65945;53.148;17.956;2023-03-01T08:06:05;102366.07;;;0.15;72.46
77011;BME280;65945;53.148;17.956;2023-03-01T08:08:32;102359.10;;;0.27;72.46
77011;BME280;65945;53.148;17.956;2023-03-01T08:11:00;102356.86;;;0.38;72.15
77011;BME280;65945;53.148;17.956;2023-03-01T08:13:28;102358.95;;;0.50;72.18
77011;BME280;65945;53.148;17.956;2023-03-01T08:16:00;102357.08;;;0.61;71.99
77011;BME280;65945;53.148;17.956;2023-03-01T08:18:27;102367.79;;;0.73;71.98
77011;BME280;65945;53.148;17.956;2023-03-01T08:20:54;102368.75;;;0.81;71.50
77011;BME280;65945;53.148;17.956;2023-03-01T08:23:20;102370.42;;;0.88;71.25
77011;BME280;65945;53.148;17.956;2023-03-01T08:25:47;102368.71;;;0.94;71.41
77011;BME280;65945;53.148;17.956;2023-03-01T08:28:13;102368.91;;;1.01;71.23
77011;BME280;65945;53.148;17.956;2023-03-01T08:30:40;102370.65;;;1.06;70.89
77011;BME280;65945;53.148;17.956;2023-03-01T08:33:06;102375.06;;;1.13;71.30
77011;BME280;65945;53.148;17.956;2023-03-01T08:35:33;102381.79;;;1.25;70.83
77011;BME280;65945;53.148;17.956;2023-03-01T08:38:00;102379.17;;;1.35;71.15
77011;BME280;65945;53.148;17.956;2023-03-01T08:40:26;102376.23;;;1.45;71.16
77011;BME280;65945;53.148;17.956;2023-03-01T08:42:53;102371.22;;;1.55;71.36
77011;BME280;65945;53.148;17.956;2023-03-01T08:45:19;102368.90;;;1.66;71.47
77011;BME280;65945;53.148;17.956;2023-03-01T08:47:46;102375.42;;;1.79;71.22
77011;BME280;65945;53.148;17.956;2023-03-01T08:50:12;102378.55;;;1.92;70.92
77011;BME280;65945;53.148;17.956;2023-03-01T08:52:39;102376.48;;;2.03;70.67
77011;BME280;65945;53.148;17.956;2023-03-01T08:55:06;102370.58;;;2.16;70.74
77011;BME280;65945;53.148;17.956;2023-03-01T08:57:33;102371.43;;;2.32;70.81
77011;BME280;65945;53.148;17.956;2023-03-01T09:00:00;102376.98;;;2.46;70.48
77011;BME280;65945;53.148;17.956;2023-03-01T09:02:27;102379.08;;;2.61;70.10
77011;BME280;65945;53.148;17.956;2023-03-01T09:04:53;102370.97;;;2.72;70.17
77011;BME280;65945;53.148;17.956;2023-03-01T09:07:20;102369.03;;;2.87;70.19
77011;BME280;65945;53.148;17.956;2023-03-01T09:09:47;102368.84;;;3.01;70.21
77011;BME280;65945;53.148;17.956;2023-03-01T09:12:13;102368.58;;;3.15;70.10
77011;BME280;65945;53.148;17.956;2023-03-01T09:14:40;102367.95;;;3.28;69.62
77011;BME280;65945;53.148;17.956;2023-03-01T09:17:07;102369.52;;;3.38;69.62
77011;BME280;65945;53.148;17.956;2023-03-01T09:19:34;102375.63;;;3.50;69.82
77011;BME280;65945;53.148;17.956;2023-03-01T09:22:03;102367.56;;;3.63;69.56
77011;BME280;65945;53.148;17.956;2023-03-01T09:24:30;102368.48;;;3.75;69.18
77011;BME280;65945;53.148;17.956;2023-03-01T09:26:57;102371.40;;;3.85;69.64
77011;BME280;65945;53.148;17.956;2023-03-01T09:29:23;102368.08;;;3.95;68.89
77011;BME280;65945;53.148;17.956;2023-03-01T09:31:51;102368.30;;;4.02;69.25
77011;BME280;65945;53.148;17.956;2023-03-01T09:34:17;102366.91;;;4.11;69.36
77011;BME280;65945;53.148;17.956;2023-03-01T09:36:50;102367.19;;;4.22;69.18
77011;BME280;65945;53.148;17.956;2023-03-01T09:39:17;102367.80;;;4.33;69.19
77011;BME280;65945;53.148;17.956;2023-03-01T09:42:02;102364.30;;;4.40;68.59
77011;BME280;65945;53.148;17.956;2023-03-01T09:44:38;102360.20;;;4.50;68.96
77011;BME280;65945;53.148;17.956;2023-03-01T09:47:19;102359.30;;;4.58;68.61
77011;BME280;65945;53.148;17.956;2023-03-01T09:50:16;102356.84;;;4.67;68.38
77011;BME280;65945;53.148;17.956;2023-03-01T09:55:30;102356.23;;;4.79;68.05
77011;BME280;65945;53.148;17.956;2023-03-01T10:01:25;102350.66;;;4.81;67.77
77011;BME280;65945;53.148;17.956;2023-03-01T10:06:22;102344.55;;;4.82;68.07
77011;BME280;65945;53.148;17.956;2023-03-01T10:09:00;102341.08;;;4.89;68.51
77011;BME280;65945;53.148;17.956;2023-03-01T10:11:36;102342.36;;;5.01;68.58
77011;BME280;65945;53.148;17.956;2023-03-01T10:14:11;102338.59;;;5.13;67.90
77011;BME280;65945;53.148;17.956;2023-03-01T10:16:47;102340.40;;;5.25;68.03
77011;BME280;65945;53.148;17.956;2023-03-01T10:19:23;102336.04;;;5.35;67.07
77011;BME280;65945;53.148;17.956;2023-03-01T10:21:51;102329.64;;;5.41;67.12
77011;BME280;65945;53.148;17.956;2023-03-01T10:24:19;102326.69;;;5.46;66.87
77011;BME280;65945;53.148;17.956;2023-03-01T10:26:57;102321.89;;;5.52;67.67
77011;BME280;65945;53.148;17.956;2023-03-01T10:29:34;102317.03;;;5.60;67.22
77011;BME280;65945;53.148;17.956;2023-03-01T10:32:03;102312.21;;;5.68;67.00
77011;BME280;65945;53.148;17.956;2023-03-01T10:34:35;102310.27;;;5.74;67.06
77011;BME280;65945;53.148;17.956;2023-03-01T10:37:12;102301.18;;;5.81;66.96
77011;BME280;65945;53.148;17.956;2023-03-01T10:39:58;102298.08;;;5.87;66.55
77011;BME280;65945;53.148;17.956;2023-03-01T10:42:29;102302.59;;;5.93;66.66
77011;BME280;65945;53.148;17.956;2023-03-01T10:44:57;102300.08;;;6.01;66.95
77011;BME280;65945;53.148;17.956;2023-03-01T10:47:27;102298.30;;;6.10;66.44
77011;BME280;65945;53.148;17.956;2023-03-01T10:49:55;102294.41;;;6.17;66.08
77011;BME280;65945;53.148;17.956;2023-03-01T10:52:26;102298.21;;;6.23;65.94
77011;BME280;65945;53.148;17.956;2023-03-01T10:54:59;102294.04;;;6.27;66.09
77011;BME280;65945;53.148;17.956;2023-03-01T10:57:34;102293.01;;;6.29;65.40
77011;BME280;65945;53.148;17.956;2023-03-01T11:00:26;102286.05;;;6.30;65.87
77011;BME280;65945;53.148;17.956;2023-03-01T11:05:26;102267.27;;;6.41;65.94
77011;BME280;65945;53.148;17.956;2023-03-01T11:07:57;102268.48;;;6.46;65.79
77011;BME280;65945;53.148;17.956;2023-03-01T11:10:30;102269.19;;;6.50;64.75
77011;BME280;65945;53.148;17.956;2023-03-01T11:13:16;102264.48;;;6.51;64.95
77011;BME280;65945;53.148;17.956;2023-03-01T11:15:58;102267.13;;;6.52;65.24
77011;BME280;65945;53.148;17.956;2023-03-01T11:18:26;102265.21;;;6.58;65.41
77011;BME280;65945;53.148;17.956;2023-03-01T11:20:54;102269.45;;;6.63;64.53
77011;BME280;65945;53.148;17.956;2023-03-01T11:23:22;102266.09;;;6.69;64.95
77011;BME280;65945;53.148;17.956;2023-03-01T11:25:55;102262.66;;;6.79;64.92
77011;BME280;65945;53.148;17.956;2023-03-01T11:28:22;102257.21;;;6.85;64.22
77011;BME280;65945;53.148;17.956;2023-03-01T11:31:00;102252.84;;;6.90;64.02
77011;BME280;65945;53.148;17.956;2023-03-01T11:33:45;102258.04;;;6.95;63.50
77011;BME280;65945;53.148;17.956;2023-03-01T11:36:32;102259.98;;;6.99;64.06
77011;BME280;65945;53.148;17.956;2023-03-01T11:39:27;102257.39;;;7.08;62.63
77011;BME280;65945;53.148;17.956;2023-03-01T11:42:48;102252.12;;;7.11;61.75
77011;BME280;65945;53.148;17.956;2023-03-01T11:44:53;102253.83;;;7.18;62.72
77011;BME280;65945;53.148;17.956;2023-03-01T11:47:38;102248.83;;;7.29;62.30
77011;BME280;65945;53.148;17.956;2023-03-01T11:50:47;102248.58;;;7.35;61.38
77011;BME280;65945;53.148;17.956;2023-03-01T11:56:13;102241.25;;;7.33;61.15
77011;BME280;65945;53.148;17.956;2023-03-01T12:20:58;102256.85;;;7.30;60.64
77011;BME280;65945;53.148;17.956;2023-03-01T12:26:35;102248.48;;;7.24;61.38
77011;BME280;65945;53.148;17.956;2023-03-01T12:29:38;102255.63;;;7.30;61.24
77011;BME280;65945;53.148;17.956;2023-03-01T12:32:28;102247.02;;;7.33;61.89
77011;BME280;65945;53.148;17.956;2023-03-01T12:35:14;102246.47;;;7.40;61.87
77011;BME280;65945;53.148;17.956;2023-03-01T12:37:59;102241.05;;;7.47;61.89
77011;BME280;65945;53.148;17.956;2023-03-01T12:43:54;102235.67;;;7.56;61.38
77011;BME280;65945;53.148;17.956;2023-03-01T12:46:49;102227.38;;;7.57;60.66
77011;BME280;65945;53.148;17.956;2023-03-01T12:49:24;102229.37;;;7.60;60.76
77011;BME280;65945;53.148;17.956;2023-03-01T12:52:02;102222.48;;;7.64;60.99
77011;BME280;65945;53.148;17.956;2023-03-01T12:54:35;102220.48;;;7.76;61.48
77011;BME280;65945;53.148;17.956;2023-03-01T13:03:18;102217.27;;;7.94;59.58
77011;BME280;65945;53.148;17.956;2023-03-01T13:06:07;102211.83;;;7.95;59.19
77011;BME280;65945;53.148;17.956;2023-03-01T13:08:52;102217.31;;;7.95;59.25
77011;BME280;65945;53.148;17.956;2023-03-01T13:11:23;102217.48;;;7.95;59.22
77011;BME280;65945;53.148;17.956;2023-03-01T13:13:50;102214.98;;;7.97;59.61
77011;BME280;65945;53.148;17.956;2023-03-01T13:16:39;102213.36;;;8.01;59.06
77011;BME280;65945;53.148;17.956;2023-03-01T13:19:17;102211.39;;;8.05;59.24
77011;BME280;65945;53.148;17.956;2023-03-01T13:21:46;102212.17;;;8.06;59.01
77011;BME280;65945;53.148;17.956;2023-03-01T13:24:36;102208.29;;;8.08;59.30
77011;BME280;65945;53.148;17.956;2023-03-01T13:32:27;102205.73;;;8.21;58.57
77011;BME280;65945;53.148;17.956;2023-03-01T13:35:42;102203.08;;;8.21;58.53
77011;BME280;65945;53.148;17.956;2023-03-01T13:37:45;102204.59;;;8.20;58.34
77011;BME280;65945;53.148;17.956;2023-03-01T13:42:46;102203.13;;;8.21;58.94
77011;BME280;65945;53.148;17.956;2023-03-01T13:47:53;102200.77;;;8.23;57.94
77011;BME280;65945;53.148;17.956;2023-03-01T13:50:25;102194.05;;;8.19;58.30
77011;BME280;65945;53.148;17.956;2023-03-01T13:52:55;102190.98;;;8.18;58.21
77011;BME280;65945;53.148;17.956;2023-03-01T13:55:40;102193.46;;;8.17;57.99
77011;BME280;65945;53.148;17.956;2023-03-01T14:00:58;102184.36;;;8.19;59.20
77011;BME280;65945;53.148;17.956;2023-03-01T14:03:25;102178.08;;;8.23;58.46
77011;BME280;65945;53.148;17.956;2023-03-01T14:06:08;102178.41;;;8.23;58.28